Time;durP1;ratioP1;P1;durP2;ratioP2;P2;SDS_P1;SDS_P2;PMS_P1;PMS_P2;Temp;Humidity;BMP_temperature;BMP_pressure;BME280_temperature;BME280_humidity;BME280_pressure;Samples;Min_cycle;Max_cycle;Signal;HPM_P1;HPM_P2
2022/02/21 00:04:20;;;;;;;;;;;;;;;;;;;;;
2022/02/21 00:07:15;;;;;;;28.55;24.23;;;8.90;99.90;;;;;;4957316;28;20293;-84
2022/02/21 00:14:06;;;;;;;31.05;22.83;;;9.00;99.90;;;;;;4885994;29;20104;-83
2022/02/21 00:16:35;;;;;;;28.05;22.77;;;9.10;99.90;;;;;;4888414;29;20120;-84
2022/02/21 00:30:52;;;;;;;;;;;;;;;;;;;;;
2022/02/21 00:33:35;;;;;;;27.33;21.83;;;9.10;99.90;;;;;;4712507;30;20041;-84
2022/02/21 00:39:34;;;;;;;30.67;21.30;;;9.10;99.90;;;;;;4768556;30;20111;-84
2022/02/21 00:48:46;;;;;;;23.63;20.98;;;9.20;99.90;;;;;;4802405;29;20125;-83
2022/02/21 00:52:04;;;;;;;;;;;;;;;;;;;;;
2022/02/21 00:55:13;;;;;;;30.02;21.67;;;9.20;99.90;;;;;;4907739;29;20044;-84
2022/02/21 00:58:17;;;;;;;20.63;17.55;;;9.30;99.90;;;;;;4897003;29;20122;-85
2022/02/21 01:52:53;;;;;;;16.48;12.93;;;9.20;99.90;;;;;;4909488;28;20251;-86
2022/02/21 02:02:43;;;;;;;;;;;;;;;;;;;;;
2022/02/21 02:11:49;;;;;;;;;;;9.30;99.90;;;;;;4778270;30;20039;-84
2022/02/21 02:18:36;;;;;;;15.82;13.80;;;9.40;99.90;;;;;;4837407;29;20083;-85
2022/02/21 03:21:18;;;;;;;27.67;18.88;;;9.80;99.90;;;;;;4894137;29;20100;-86
2022/02/21 03:38:25;;;;;;;;;;;;;;;;;;;;;
2022/02/21 04:24:41;;;;;;;38.83;24.20;;;9.80;99.90;;;;;;4813585;29;20086;-85
2022/02/21 05:04:02;;;;;;;;;;;;;;;;;;;;;
2022/02/21 05:13:39;;;;;;;35.03;22.85;;;10.10;99.90;;;;;;4801765;29;20090;-85
2022/02/21 05:16:14;;;;;;;36.35;24.20;;;10.10;99.90;;;;;;4800293;29;20085;-86
2022/02/21 05:18:43;;;;;;;39.63;25.58;;;10.10;99.90;;;;;;4802908;29;20038;-87
2022/02/21 05:22:08;;;;;;;37.30;24.17;;;10.10;99.90;;;;;;4819770;29;20049;-89
2022/02/21 05:32:14;;;;;;;;;;;;;;;;;;;;;
2022/02/21 05:35:03;;;;;;;33.45;23.00;;;10.00;99.90;;;;;;4779464;29;20066;-87
2022/02/21 05:38:01;;;;;;;42.13;26.38;;;9.90;99.90;;;;;;4835181;29;20042;-88
2022/02/21 05:40:24;;;;;;;35.33;24.55;;;9.80;99.90;;;;;;4837680;29;20042;-87
2022/02/21 05:42:59;;;;;;;34.08;24.15;;;9.80;99.90;;;;;;4843046;29;20052;-87
2022/02/21 05:45:50;;;;;;;35.08;23.67;;;9.80;99.90;;;;;;4912314;29;20035;-87
2022/02/21 05:48:46;;;;;;;34.20;23.73;;;9.80;99.90;;;;;;4950701;29;20031;-87
2022/02/21 05:51:27;;;;;;;32.95;22.42;;;9.80;99.90;;;;;;5021308;28;20037;-87
2022/02/21 05:53:56;;;;;;;31.85;22.25;;;9.80;99.90;;;;;;5032256;28;20034;-87
2022/02/21 05:56:46;;;;;;;36.30;22.15;;;9.90;99.90;;;;;;5024121;28;20029;-87
2022/02/21 05:59:12;;;;;;;30.95;21.50;;;9.90;99.90;;;;;;5015130;28;20112;-86
2022/02/21 06:01:48;;;;;;;28.75;20.63;;;9.90;99.90;;;;;;5041673;28;20090;-87
2022/02/21 06:04:35;;;;;;;31.67;20.33;;;10.00;99.90;;;;;;5042806;28;20025;-85
2022/02/21 06:07:01;;;;;;;29.50;20.95;;;10.00;99.90;;;;;;5041916;28;20069;-87
2022/02/21 06:09:27;;;;;;;31.05;21.30;;;10.00;99.90;;;;;;5042927;28;20017;-84
2022/02/21 06:12:13;;;;;;;31.20;20.33;;;10.00;99.90;;;;;;5040988;28;20056;-85
2022/02/21 06:14:54;;;;;;;31.30;20.63;;;10.00;99.90;;;;;;5038486;28;20036;-86
2022/02/21 06:17:26;;;;;;;27.00;21.02;;;10.00;99.90;;;;;;5038681;28;20017;-86
2022/02/21 06:20:01;;;;;;;25.40;19.25;;;10.00;99.90;;;;;;5046732;28;20108;-86
2022/02/21 06:22:35;;;;;;;26.80;20.67;;;10.00;99.90;;;;;;5023525;28;20030;-88
2022/02/21 06:25:07;;;;;;;27.48;19.48;;;10.00;99.90;;;;;;5029684;28;20037;-88
2022/02/21 06:27:51;;;;;;;24.48;19.35;;;10.00;99.90;;;;;;5049113;28;20361;-87
2022/02/21 06:30:17;;;;;;;27.88;18.77;;;9.90;99.90;;;;;;5041401;28;20102;-88
2022/02/21 06:32:43;;;;;;;27.33;19.17;;;10.00;99.90;;;;;;5025494;28;20201;-87
2022/02/21 06:35:15;;;;;;;32.22;20.10;;;10.00;99.90;;;;;;5039840;28;20124;-87
2022/02/21 06:37:52;;;;;;;28.00;19.52;;;10.10;99.90;;;;;;5049078;28;20025;-87
2022/02/21 06:40:18;;;;;;;28.02;19.00;;;10.10;99.90;;;;;;5042541;28;20038;-87
2022/02/21 06:43:07;;;;;;;26.52;18.58;;;10.10;99.90;;;;;;5028972;28;20021;-87
2022/02/21 06:46:00;;;;;;;27.30;17.83;;;10.20;99.90;;;;;;5041014;28;20099;-87
2022/02/21 06:49:29;;;;;;;24.45;18.40;;;10.20;99.90;;;;;;5043600;28;20029;-87
2022/02/21 06:51:59;;;;;;;23.42;17.52;;;10.30;99.90;;;;;;5034552;28;20033;-88
2022/02/21 06:55:03;;;;;;;23.83;17.85;;;10.30;99.90;;;;;;5032578;28;20140;-87
2022/02/21 06:57:35;;;;;;;28.63;17.60;;;10.30;99.90;;;;;;5044660;28;20100;-88
2022/02/21 07:01:20;;;;;;;23.02;17.75;;;10.40;99.90;;;;;;5040290;28;20514;-87
2022/02/21 07:04:44;;;;;;;22.08;18.27;;;10.40;99.90;;;;;;4953649;28;20406;-87
2022/02/21 07:07:30;;;;;;;;;;;;;;;;;;;;;
2022/02/21 07:14:11;;;;;;;24.40;18.65;;;10.50;99.90;;;;;;4972528;28;20072;-85
2022/02/21 07:16:43;;;;;;;25.02;18.55;;;10.60;99.90;;;;;;4986696;28;20537;-85
2022/02/21 07:19:38;;;;;;;22.25;17.80;;;10.60;99.90;;;;;;5022036;28;20034;-86
2022/02/21 07:24:59;;;;;;;32.30;19.02;;;10.70;99.90;;;;;;4956974;28;20047;-86
2022/02/21 07:27:47;;;;;;;33.15;25.45;;;10.80;99.90;;;;;;5014146;28;20042;-86
2022/02/21 07:30:35;;;;;;;24.42;16.67;;;10.90;99.90;;;;;;5025476;28;20120;-86
2022/02/21 07:33:04;;;;;;;25.70;17.05;;;10.90;99.90;;;;;;5020820;28;20201;-85
2022/02/21 07:35:56;;;;;;;27.13;17.63;;;11.10;99.90;;;;;;5023240;28;20085;-86
2022/02/21 07:38:38;;;;;;;32.72;16.98;;;11.20;99.90;;;;;;5011273;28;20037;-85
2022/02/21 07:41:05;;;;;;;22.45;16.48;;;11.30;99.90;;;;;;5022595;28;20104;-86
2022/02/21 07:44:05;;;;;;;23.05;16.55;;;11.50;99.90;;;;;;5029456;28;20480;-85
2022/02/21 07:46:34;;;;;;;25.98;15.07;;;11.60;99.90;;;;;;5015222;28;20361;-86
2022/02/21 07:49:09;;;;;;;16.80;14.57;;;11.70;99.90;;;;;;5013211;28;20018;-86
2022/02/21 07:51:41;;;;;;;23.25;15.85;;;11.80;99.90;;;;;;5018624;28;20464;-86
2022/02/21 07:54:09;;;;;;;23.98;17.40;;;11.80;99.90;;;;;;5021022;28;20457;-86
2022/02/21 07:56:38;;;;;;;25.20;16.00;;;11.90;99.90;;;;;;5008487;28;20128;-86
2022/02/21 07:59:19;;;;;;;22.40;17.40;;;11.90;99.90;;;;;;5005764;28;20026;-86
2022/02/21 08:01:51;;;;;;;22.95;16.25;;;12.10;99.90;;;;;;5018897;28;20025;-85
2022/02/21 08:04:25;;;;;;;18.95;14.63;;;12.20;99.90;;;;;;5023882;28;20484;-86
2022/02/21 08:06:54;;;;;;;25.45;14.93;;;12.30;99.90;;;;;;5024376;28;20108;-87
2022/02/21 08:09:23;;;;;;;24.95;15.80;;;12.50;99.90;;;;;;5026006;28;20079;-87
2022/02/21 08:11:52;;;;;;;20.90;14.13;;;12.70;99.90;;;;;;5033724;28;20084;-86
2022/02/21 08:14:35;;;;;;;16.63;13.40;;;12.90;99.90;;;;;;5041651;28;20111;-86
2022/02/21 08:17:07;;;;;;;19.02;13.93;;;12.90;99.90;;;;;;5044444;28;20030;-86
2022/02/21 08:19:42;;;;;;;30.15;16.92;;;13.10;99.90;;;;;;5046087;28;20096;-86
2022/02/21 08:22:13;;;;;;;26.95;14.32;;;13.20;99.90;;;;;;5041526;28;20032;-86
2022/02/21 08:24:45;;;;;;;27.55;16.27;;;13.30;99.90;;;;;;5038335;28;20112;-86
2022/02/21 08:27:34;;;;;;;92.23;33.20;;;13.30;99.90;;;;;;5043871;28;20079;-86
2022/02/21 08:29:59;;;;;;;39.17;16.25;;;13.30;99.90;;;;;;5045546;28;20367;-84
2022/02/21 08:32:33;;;;;;;26.27;14.10;;;13.30;99.90;;;;;;5043859;28;20100;-85
2022/02/21 08:35:07;;;;;;;54.25;21.52;;;13.30;99.90;;;;;;5046023;28;20077;-84
2022/02/21 08:37:40;;;;;;;45.38;19.40;;;13.20;99.90;;;;;;5041869;28;20061;-86
2022/02/21 08:40:13;;;;;;;151.32;44.85;;;13.30;99.90;;;;;;5035694;28;20049;-85
2022/02/21 08:42:43;;;;;;;69.32;25.38;;;13.30;99.90;;;;;;5034225;28;20485;-85
2022/02/21 08:45:20;;;;;;;28.25;14.07;;;13.40;99.90;;;;;;5045721;28;20396;-86
2022/02/21 08:47:46;;;;;;;30.63;14.70;;;13.60;99.90;;;;;;5043779;28;20025;-85
2022/02/21 08:50:12;;;;;;;34.30;13.82;;;13.70;99.90;;;;;;5039773;28;20032;-85
2022/02/21 08:52:40;;;;;;;19.30;10.20;;;13.70;99.90;;;;;;5038740;28;20455;-85
2022/02/21 08:55:15;;;;;;;16.42;10.35;;;13.70;99.90;;;;;;5036939;28;20075;-85
2022/02/21 08:57:58;;;;;;;17.48;10.95;;;13.80;99.90;;;;;;5043934;28;20063;-85
2022/02/21 09:00:25;;;;;;;27.40;14.48;;;13.90;99.90;;;;;;5037860;28;20037;-85
2022/02/21 09:02:51;;;;;;;18.55;10.25;;;13.90;99.90;;;;;;5039817;28;20025;-85
2022/02/21 09:05:25;;;;;;;25.75;11.20;;;13.90;99.90;;;;;;5045551;28;20025;-84
2022/02/21 09:08:09;;;;;;;41.85;16.73;;;13.80;99.90;;;;;;5039776;28;20040;-85
2022/02/21 09:11:00;;;;;;;30.77;13.55;;;13.80;99.90;;;;;;5044367;28;20454;-85
2022/02/21 09:13:31;;;;;;;14.88;7.13;;;13.90;99.90;;;;;;5040560;28;20047;-85
2022/02/21 09:15:57;;;;;;;13.98;6.70;;;13.80;99.90;;;;;;5041075;28;20083;-84
2022/02/21 09:18:25;;;;;;;18.42;7.38;;;13.80;99.90;;;;;;5024671;28;20490;-85
2022/02/21 09:21:42;;;;;;;15.00;6.53;;;13.70;99.90;;;;;;5042969;28;20034;-86
2022/02/21 09:24:10;;;;;;;20.67;8.52;;;13.90;99.90;;;;;;4989099;28;20089;-85
2022/02/21 09:26:57;;;;;;;20.92;7.32;;;14.00;99.90;;;;;;4988985;28;20026;-84
2022/02/21 09:29:35;;;;;;;19.10;7.55;;;14.00;99.90;;;;;;5013664;28;20066;-83
2022/02/21 09:32:01;;;;;;;16.08;7.25;;;14.00;99.90;;;;;;5042766;28;20085;-85
2022/02/21 09:34:37;;;;;;;14.82;6.72;;;13.90;99.90;;;;;;5043777;28;20126;-84
2022/02/21 09:37:06;;;;;;;22.50;8.70;;;13.70;99.90;;;;;;5039935;28;20029;-84
2022/02/21 09:39:40;;;;;;;68.25;17.42;;;13.70;99.90;;;;;;5037475;28;20036;-85
2022/02/21 09:42:14;;;;;;;28.13;11.52;;;13.70;99.90;;;;;;5042725;28;20360;-85
2022/02/21 09:44:40;;;;;;;15.90;7.68;;;13.90;99.90;;;;;;5036503;28;20029;-85
2022/02/21 09:47:08;;;;;;;20.27;9.60;;;14.00;99.90;;;;;;5042334;28;20026;-85
2022/02/21 09:49:34;;;;;;;19.35;9.45;;;13.90;99.90;;;;;;5028908;28;20435;-85
2022/02/21 09:52:00;;;;;;;22.85;12.80;;;13.90;99.90;;;;;;5043124;28;20083;-85
2022/02/21 09:54:29;;;;;;;24.42;14.35;;;13.80;99.90;;;;;;5045371;28;20037;-84
2022/02/21 09:57:13;;;;;;;;;;;;;;;;;;;;;
2022/02/21 09:59:46;;;;;;;26.92;13.18;;;13.60;99.90;;;;;;5047625;28;20025;-84
2022/02/21 10:02:19;;;;;;;26.20;13.02;;;13.70;99.90;;;;;;5047730;28;20032;-85
2022/02/21 10:05:05;;;;;;;26.70;13.07;;;13.70;99.90;;;;;;5040181;28;20060;-85
2022/02/21 10:07:30;;;;;;;25.02;12.00;;;13.80;99.90;;;;;;5044837;28;20158;-84
2022/02/21 10:10:03;;;;;;;21.98;11.05;;;13.70;99.90;;;;;;5039456;28;20476;-86
2022/02/21 10:13:14;;;;;;;21.77;10.07;;;13.80;99.90;;;;;;5044204;28;20045;-85
2022/02/21 10:15:19;;;;;;;17.40;10.90;;;13.80;99.90;;;;;;5036511;28;20033;-85
2022/02/21 10:18:12;;;;;;;18.02;11.48;;;13.70;99.90;;;;;;5046916;28;20074;-85
2022/02/21 10:21:04;;;;;;;21.60;10.70;;;13.40;99.90;;;;;;5043227;28;20483;-84
2022/02/21 10:23:39;;;;;;;18.30;9.63;;;13.40;99.90;;;;;;5038748;28;20132;-84
2022/02/21 10:26:11;;;;;;;17.58;9.18;;;13.30;99.90;;;;;;5046103;28;20275;-85
2022/02/21 10:28:44;;;;;;;15.40;8.05;;;13.40;99.90;;;;;;5046128;28;20207;-84
2022/02/21 10:31:10;;;;;;;17.40;8.27;;;13.80;99.90;;;;;;5045895;28;20100;-84
2022/02/21 10:33:39;;;;;;;21.63;8.30;;;14.30;99.90;;;;;;5045301;28;20035;-84
2022/02/21 10:36:34;;;;;;;16.33;8.07;;;14.70;99.90;;;;;;5024717;28;20021;-85
2022/02/21 10:39:11;;;;;;;11.05;6.32;;;14.90;99.90;;;;;;5025299;28;20501;-85
2022/02/21 10:41:45;;;;;;;18.38;7.72;;;15.30;99.90;;;;;;5039774;28;20029;-84
2022/02/21 10:44:24;;;;;;;21.55;8.25;;;14.90;99.90;;;;;;5041785;28;20032;-84
2022/02/21 10:47:07;;;;;;;12.55;6.78;;;14.70;99.90;;;;;;5044695;28;20025;-86
2022/02/21 10:49:44;;;;;;;13.95;7.00;;;15.00;99.90;;;;;;5045089;28;20506;-84
2022/02/21 10:52:26;;;;;;;17.38;7.00;;;15.60;99.90;;;;;;5027363;28;20029;-84
2022/02/21 10:54:59;;;;;;;16.70;5.93;;;16.00;99.90;;;;;;5046477;28;20045;-83
2022/02/21 10:57:27;;;;;;;12.68;5.47;;;15.80;99.90;;;;;;5038767;28;20026;-84
2022/02/21 10:59:54;;;;;;;13.95;4.60;;;15.80;99.90;;;;;;5045748;28;20124;-83
2022/02/21 11:02:24;;;;;;;10.93;4.28;;;15.50;99.90;;;;;;5047380;28;20028;-84
2022/02/21 11:05:17;;;;;;;12.25;4.88;;;15.40;99.90;;;;;;5037716;28;20022;-84
2022/02/21 11:07:51;;;;;;;10.50;5.15;;;14.90;99.90;;;;;;5012529;28;20044;-84
2022/02/21 11:10:17;;;;;;;8.52;4.38;;;14.60;99.90;;;;;;5042809;28;20036;-84
2022/02/21 11:12:45;;;;;;;13.65;4.72;;;14.40;99.90;;;;;;5045588;28;20045;-86
2022/02/21 11:15:14;;;;;;;14.27;4.35;;;14.50;99.90;;;;;;5039346;28;20059;-85
2022/02/21 11:17:50;;;;;;;11.52;4.75;;;14.50;99.90;;;;;;5024457;28;20120;-85
2022/02/21 11:20:16;;;;;;;18.98;5.80;;;14.50;99.90;;;;;;5047501;28;20025;-85
2022/02/21 11:22:45;;;;;;;9.38;4.25;;;14.60;99.90;;;;;;5046637;28;20024;-85
2022/02/21 11:25:33;;;;;;;10.50;3.78;;;14.80;99.90;;;;;;5038849;28;20112;-85
2022/02/21 11:28:36;;;;;;;11.43;3.95;;;14.70;99.90;;;;;;5043756;28;20029;-85
2022/02/21 11:31:10;;;;;;;11.68;4.00;;;14.40;99.90;;;;;;5031993;28;20072;-84
2022/02/21 11:34:02;;;;;;;8.10;3.92;;;14.20;99.90;;;;;;5044503;28;20029;-86
2022/02/21 11:36:29;;;;;;;12.40;4.07;;;13.90;99.90;;;;;;5043596;28;20028;-85
2022/02/21 11:38:56;;;;;;;17.13;4.55;;;13.70;99.90;;;;;;5044478;28;20388;-85
2022/02/21 11:41:37;;;;;;;9.77;4.75;;;13.60;99.90;;;;;;5044554;28;20017;-84
2022/02/21 11:44:30;;;;;;;13.77;5.03;;;13.50;99.90;;;;;;5044533;28;20052;-84
2022/02/21 11:47:08;;;;;;;10.07;4.35;;;13.40;99.90;;;;;;5039259;28;20200;-84
2022/02/21 11:49:36;;;;;;;9.45;3.80;;;13.30;99.90;;;;;;5039336;28;20036;-85
2022/02/21 11:52:32;;;;;;;11.13;4.28;;;13.20;99.90;;;;;;5036376;28;20037;-84
2022/02/21 11:55:01;;;;;;;9.95;4.25;;;13.20;99.90;;;;;;5046301;28;20374;-85
2022/02/21 11:57:36;;;;;;;11.23;3.83;;;13.20;99.90;;;;;;5043795;28;20026;-84
2022/02/21 12:00:40;;;;;;;6.75;3.80;;;13.10;99.90;;;;;;5039483;28;20190;-84
2022/02/21 12:03:56;;;;;;;7.80;3.55;;;13.10;99.90;;;;;;5042843;28;20366;-87
2022/02/21 12:06:57;;;;;;;13.70;3.60;;;13.10;99.90;;;;;;5016020;28;20076;-85
2022/02/21 12:09:20;;;;;;;17.90;4.07;;;13.00;99.90;;;;;;5045498;28;20120;-89
2022/02/21 12:11:49;;;;;;;7.22;2.83;;;13.00;99.90;;;;;;5041133;28;20069;-84
2022/02/21 12:14:18;;;;;;;12.13;3.55;;;12.90;99.90;;;;;;5042115;28;20038;-85
2022/02/21 12:17:14;;;;;;;7.75;3.08;;;12.90;99.90;;;;;;5023606;28;20026;-85
2022/02/21 12:19:52;;;;;;;14.93;3.60;;;12.80;99.90;;;;;;5029835;28;20049;-84
2022/02/21 12:25:40;;;;;;;12.05;3.30;;;12.80;99.90;;;;;;5035689;28;20545;-82
2022/02/21 12:28:23;;;;;;;10.13;3.50;;;12.80;99.90;;;;;;5051667;28;20447;-88
2022/02/21 12:30:58;;;;;;;7.13;2.67;;;12.80;99.90;;;;;;5041553;28;20025;-84
2022/02/21 12:33:35;;;;;;;9.25;3.50;;;12.70;99.90;;;;;;5044136;28;20029;-87
2022/02/21 12:36:09;;;;;;;9.30;3.25;;;12.70;99.90;;;;;;5027332;28;20025;-85
2022/02/21 12:38:45;;;;;;;11.65;3.47;;;12.70;99.90;;;;;;5045638;28;20025;-86
2022/02/21 12:41:49;;;;;;;10.93;3.88;;;12.70;99.90;;;;;;5041676;28;20446;-87
2022/02/21 12:44:15;;;;;;;7.88;2.97;;;12.90;99.90;;;;;;5044924;28;20037;-84
2022/02/21 12:46:47;;;;;;;6.90;2.65;;;12.90;99.90;;;;;;5040987;28;20021;-84
2022/02/21 12:49:34;;;;;;;7.93;2.88;;;13.00;99.90;;;;;;5041296;28;20029;-86
2022/02/21 12:52:14;;;;;;;6.32;2.63;;;13.00;99.90;;;;;;5043900;28;20095;-85
2022/02/21 12:55:15;;;;;;;7.63;3.05;;;12.90;99.90;;;;;;5039812;28;20499;-85
2022/02/21 12:57:41;;;;;;;10.20;3.10;;;12.80;99.90;;;;;;5046924;28;20025;-84
2022/02/21 13:00:08;;;;;;;10.02;3.10;;;12.80;99.90;;;;;;5037032;28;20083;-82
2022/02/21 13:02:34;;;;;;;4.65;2.78;;;12.80;99.90;;;;;;5047296;28;20052;-77
2022/02/21 13:05:06;;;;;;;11.18;2.85;;;12.70;99.90;;;;;;5045145;28;20603;-80
2022/02/21 13:07:33;;;;;;;7.38;2.55;;;12.80;99.90;;;;;;5040626;28;20049;-80
2022/02/21 13:10:09;;;;;;;10.27;3.10;;;12.70;99.90;;;;;;5026762;28;20055;-81
2022/02/21 13:12:43;;;;;;;7.50;2.53;;;12.70;99.90;;;;;;5029223;28;20041;-81
2022/02/21 13:15:14;;;;;;;10.20;2.88;;;12.60;99.90;;;;;;4999055;28;20091;-81
2022/02/21 13:17:41;;;;;;;6.07;2.35;;;12.60;99.90;;;;;;5025665;28;20017;-79
2022/02/21 13:20:18;;;;;;;;;;;;;;;;;;;;;
2022/02/21 13:22:47;;;;;;;10.43;3.05;;;12.70;99.90;;;;;;5023219;28;20021;-79
2022/02/21 13:25:25;;;;;;;5.65;2.78;;;12.70;99.90;;;;;;5018600;28;20022;-82
2022/02/21 13:28:17;;;;;;;12.43;4.13;;;12.70;99.90;;;;;;5026797;28;20041;-83
2022/02/21 13:30:46;;;;;;;7.63;3.03;;;12.80;99.90;;;;;;5017242;28;20080;-82
2022/02/21 13:33:15;;;;;;;7.63;2.75;;;12.90;99.90;;;;;;4996605;28;20041;-83
2022/02/21 13:35:58;;;;;;;8.52;3.42;;;12.90;99.90;;;;;;5019422;28;20041;-81
2022/02/21 13:38:33;;;;;;;14.13;6.68;;;12.90;99.90;;;;;;5002800;28;20390;-82
2022/02/21 13:41:01;;;;;;;7.45;2.85;;;12.90;99.90;;;;;;5020751;28;20036;-81
2022/02/21 13:43:30;;;;;;;6.90;2.97;;;12.80;99.90;;;;;;5018467;28;20017;-83
2022/02/21 13:45:56;;;;;;;11.50;3.40;;;12.80;99.90;;;;;;5023171;28;20036;-83
2022/02/21 13:51:26;;;;;;;7.43;3.47;;;12.70;99.90;;;;;;5020641;28;20546;-82
2022/02/21 13:53:52;;;;;;;6.18;2.85;;;12.60;99.90;;;;;;5021415;28;20029;-81
2022/02/21 13:56:21;;;;;;;5.07;2.78;;;12.70;99.90;;;;;;5020958;28;20026;-80
2022/02/21 13:58:50;;;;;;;8.95;4.40;;;12.80;99.90;;;;;;5004255;28;20586;-80
2022/02/21 14:01:16;;;;;;;5.85;2.97;;;12.90;99.90;;;;;;5020234;28;20026;-81
2022/02/21 14:03:48;;;;;;;7.07;3.50;;;13.00;99.90;;;;;;5022166;28;20021;-81
2022/02/21 14:06:16;;;;;;;10.73;3.38;;;13.00;99.90;;;;;;5022551;28;20041;-80
2022/02/21 14:08:54;;;;;;;8.90;2.45;;;13.10;99.90;;;;;;5004801;28;20075;-82
2022/02/21 14:11:29;;;;;;;12.23;2.83;;;13.20;99.90;;;;;;5020324;28;20167;-79
2022/02/21 14:13:55;;;;;;;3.80;2.63;;;13.30;99.90;;;;;;5022141;28;20033;-80
2022/02/21 14:16:28;;;;;;;7.70;2.85;;;13.40;99.90;;;;;;5024051;28;20127;-80
2022/02/21 14:18:57;;;;;;;10.85;4.10;;;13.40;99.90;;;;;;5053278;28;20021;-81
2022/02/21 14:21:23;;;;;;;8.85;4.22;;;13.40;99.90;;;;;;5042930;28;20049;-80
2022/02/21 14:23:49;;;;;;;10.13;4.50;;;13.50;99.90;;;;;;5032024;28;20026;-82
2022/02/21 14:26:20;;;;;;;11.13;4.78;;;13.60;99.90;;;;;;5024609;28;20411;-83
2022/02/21 14:28:46;;;;;;;11.18;4.75;;;13.60;99.90;;;;;;5033498;28;20013;-83
2022/02/21 14:31:38;;;;;;;;;;;;;;;;;;;;;
2022/02/21 14:34:04;;;;;;;8.82;4.63;;;13.90;99.90;;;;;;5030968;28;20040;-81
2022/02/21 14:36:35;;;;;;;9.48;4.60;;;14.10;99.90;;;;;;5043283;28;20115;-82
2022/02/21 14:39:02;;;;;;;8.98;4.50;;;14.20;99.90;;;;;;5040261;28;20660;-81
2022/02/21 14:41:31;;;;;;;13.82;4.45;;;14.10;99.90;;;;;;5022190;28;20038;-83
2022/02/21 14:43:57;;;;;;;14.80;5.53;;;14.10;99.90;;;;;;5044040;28;20022;-82
2022/02/21 14:46:31;;;;;;;12.82;5.93;;;14.10;99.90;;;;;;5040896;28;20080;-83
2022/02/21 14:49:05;;;;;;;14.52;6.50;;;14.00;99.90;;;;;;5043393;28;20025;-83
2022/02/21 14:51:32;;;;;;;13.95;5.68;;;13.90;99.90;;;;;;5040314;28;20033;-83
2022/02/21 14:53:58;;;;;;;18.38;7.32;;;13.90;99.90;;;;;;5043554;28;20506;-84
2022/02/21 14:56:35;;;;;;;23.27;6.43;;;14.00;99.90;;;;;;5033046;28;20057;-82
2022/02/21 14:59:04;;;;;;;19.23;6.90;;;14.00;99.90;;;;;;5044740;28;20032;-83
2022/02/21 15:01:49;;;;;;;11.57;5.13;;;14.00;99.90;;;;;;5045541;28;20025;-84
2022/02/21 15:04:15;;;;;;;17.65;5.65;;;14.00;99.90;;;;;;5045423;28;20033;-83
2022/02/21 15:06:41;;;;;;;14.48;5.50;;;13.90;99.90;;;;;;5042310;28;20087;-84
2022/02/21 15:09:10;;;;;;;14.93;7.00;;;13.80;99.90;;;;;;5042237;28;20036;-83
2022/02/21 15:11:36;;;;;;;14.00;7.72;;;13.70;99.90;;;;;;5043007;28;20048;-83
2022/02/21 15:14:08;;;;;;;21.00;8.65;;;13.60;99.90;;;;;;5042389;28;20033;-82
2022/02/21 15:16:34;;;;;;;17.23;4.85;;;13.50;99.90;;;;;;5044518;28;20017;-82
2022/02/21 15:19:00;;;;;;;21.60;6.57;;;13.50;99.90;;;;;;5026376;28;20040;-82
2022/02/21 15:21:30;;;;;;;13.77;6.22;;;13.40;99.90;;;;;;5042905;28;20022;-81
2022/02/21 15:23:56;;;;;;;22.20;7.22;;;13.20;99.90;;;;;;5025102;28;20079;-83
2022/02/21 15:26:25;;;;;;;24.75;8.40;;;12.90;99.90;;;;;;5044842;28;20119;-83
2022/02/21 15:28:51;;;;;;;14.60;5.97;;;12.50;99.90;;;;;;5046830;28;20496;-84
2022/02/21 15:31:20;;;;;;;14.68;4.72;;;12.30;99.90;;;;;;5042739;28;20063;-83
2022/02/21 15:33:46;;;;;;;9.48;4.35;;;11.90;99.90;;;;;;5044591;28;20022;-84
2022/02/21 15:36:12;;;;;;;13.55;4.28;;;11.80;99.90;;;;;;5043469;28;20304;-84
2022/02/21 15:38:38;;;;;;;16.75;5.18;;;11.40;99.90;;;;;;5051392;28;20065;-82
2022/02/21 15:41:08;;;;;;;13.82;5.15;;;11.00;99.90;;;;;;5045201;28;20071;-83
2022/02/21 15:43:45;;;;;;;14.43;6.95;;;10.60;99.90;;;;;;5026447;28;20459;-84
2022/02/21 15:46:14;;;;;;;15.90;7.88;;;10.10;99.90;;;;;;5045242;28;20108;-83
2022/02/21 15:48:40;;;;;;;19.95;11.27;;;9.80;99.90;;;;;;5045408;28;20025;-85
2022/02/21 15:51:06;;;;;;;18.35;9.55;;;9.60;99.90;;;;;;5045340;28;20020;-85
2022/02/21 15:53:34;;;;;;;13.95;7.47;;;9.40;99.90;;;;;;5025036;28;20037;-83
2022/02/21 15:56:09;;;;;;;13.93;7.18;;;9.30;99.90;;;;;;5035815;28;20028;-84
2022/02/21 15:58:35;;;;;;;10.27;4.97;;;9.20;99.90;;;;;;5037378;28;20037;-83
2022/02/21 16:01:01;;;;;;;11.73;5.72;;;9.20;99.90;;;;;;5042056;28;20026;-88
2022/02/21 16:03:26;;;;;;;11.23;5.35;;;9.10;99.90;;;;;;5044504;28;20468;-84
2022/02/21 16:05:52;;;;;;;15.70;5.80;;;9.10;99.90;;;;;;5039065;28;20026;-80
2022/02/21 16:08:18;;;;;;;7.38;5.15;;;9.10;99.90;;;;;;5042844;28;20029;-82
2022/02/21 16:10:44;;;;;;;11.13;5.32;;;9.10;99.90;;;;;;5040055;28;20485;-82
2022/02/21 16:13:10;;;;;;;5.88;4.20;;;9.10;99.90;;;;;;5047397;28;20049;-83
2022/02/21 16:15:37;;;;;;;5.78;3.58;;;9.00;99.90;;;;;;5024987;28;20046;-86
2022/02/21 16:18:03;;;;;;;1.75;1.38;;;8.90;99.90;;;;;;5020750;28;20025;-83
2022/02/21 16:20:29;;;;;;;2.35;0.90;;;8.60;99.90;;;;;;5021777;28;20098;-82
2022/02/21 16:22:54;;;;;;;6.05;1.00;;;8.10;99.90;;;;;;5041857;28;20033;-82
2022/02/21 16:25:20;;;;;;;0.47;0.47;;;7.70;99.90;;;;;;5046298;28;20029;-84
2022/02/21 16:27:47;;;;;;;2.47;0.40;;;7.40;99.90;;;;;;5043960;28;20040;-80
2022/02/21 16:30:19;;;;;;;1.38;0.60;;;7.10;99.90;;;;;;5038225;28;20029;-83
2022/02/21 16:32:45;;;;;;;1.35;0.80;;;6.90;99.90;;;;;;5027194;28;20060;-84
2022/02/21 16:35:11;;;;;;;2.80;1.00;;;6.80;99.90;;;;;;5020571;28;20080;-84
2022/02/21 16:37:39;;;;;;;0.40;0.40;;;6.70;99.90;;;;;;5038595;28;20627;-84
2022/02/21 16:40:09;;;;;;;0.60;0.40;;;6.70;99.90;;;;;;5038071;28;20029;-84
2022/02/21 16:42:37;;;;;;;0.77;0.77;;;6.60;99.90;;;;;;5025101;28;20524;-84
2022/02/21 16:45:09;;;;;;;0.55;0.55;;;6.50;99.90;;;;;;5050910;28;20029;-84
2022/02/21 16:47:40;;;;;;;0.95;0.60;;;6.50;99.90;;;;;;5033549;28;20086;-80
2022/02/21 16:50:08;;;;;;;1.88;0.93;;;6.50;99.90;;;;;;5054151;28;20472;-91
2022/02/21 16:52:36;;;;;;;1.00;1.00;;;6.50;99.90;;;;;;5035609;28;20091;-91
2022/02/21 16:55:04;;;;;;;1.08;1.02;;;6.40;99.90;;;;;;5045319;28;20044;-83
2022/02/21 16:57:34;;;;;;;1.10;1.00;;;6.40;99.90;;;;;;5030343;28;20024;-82
2022/02/21 17:00:01;;;;;;;0.60;0.60;;;6.40;99.90;;;;;;5049251;28;20025;-82
2022/02/21 17:02:27;;;;;;;0.90;0.75;;;6.30;99.90;;;;;;5049134;28;20024;-85
2022/02/21 17:04:53;;;;;;;0.73;0.60;;;6.20;99.90;;;;;;5049189;28;20124;-83
2022/02/21 17:07:24;;;;;;;0.77;0.73;;;6.20;99.90;;;;;;5049689;28;20534;-84
2022/02/21 17:09:51;;;;;;;1.80;1.13;;;6.10;99.90;;;;;;5049815;28;20022;-84
2022/02/21 17:12:25;;;;;;;1.55;1.05;;;6.00;99.90;;;;;;5049593;28;20138;-84
2022/02/21 17:14:52;;;;;;;1.58;1.05;;;5.90;99.90;;;;;;5031861;28;20128;-83
2022/02/21 17:17:18;;;;;;;0.50;0.50;;;5.80;99.90;;;;;;5029266;28;20021;-80
2022/02/21 17:19:52;;;;;;;24.10;6.20;;;5.70;99.90;;;;;;5032887;28;20025;-88
2022/02/21 17:22:21;;;;;;;1.55;0.68;;;5.70;99.90;;;;;;5050749;28;20060;-86
2022/02/21 17:24:53;;;;;;;0.73;0.73;;;5.70;99.90;;;;;;5031446;28;20075;-78
2022/02/21 17:27:21;;;;;;;4.13;0.70;;;5.70;99.90;;;;;;5028234;28;20131;-82
2022/02/21 17:29:50;;;;;;;1.40;0.77;;;5.70;99.90;;;;;;5048778;28;20033;-81
2022/02/21 17:32:17;;;;;;;1.40;0.80;;;5.80;99.90;;;;;;5048436;28;20025;-82
2022/02/21 17:34:43;;;;;;;2.25;0.70;;;5.80;99.90;;;;;;5036593;28;20099;-82
2022/02/21 17:37:11;;;;;;;0.30;0.30;;;5.70;99.90;;;;;;5042674;28;20124;-82
2022/02/21 17:39:40;;;;;;;1.58;0.73;;;5.60;99.90;;;;;;5037238;28;20029;-82
2022/02/21 17:42:06;;;;;;;0.60;0.50;;;5.70;99.90;;;;;;5043195;28;20532;-82
2022/02/21 17:44:32;;;;;;;0.68;0.60;;;5.70;99.90;;;;;;5043142;28;20116;-82
2022/02/21 17:47:01;;;;;;;2.55;1.00;;;5.80;99.90;;;;;;5041695;28;20032;-83
2022/02/21 17:49:29;;;;;;;0.50;0.50;;;5.90;99.90;;;;;;5038293;28;20116;-82
2022/02/21 17:51:55;;;;;;;1.85;0.60;;;5.90;99.90;;;;;;5038425;28;20033;-82
2022/02/21 17:54:21;;;;;;;1.00;0.68;;;5.90;99.90;;;;;;5021415;28;20129;-83
2022/02/21 17:56:48;;;;;;;1.30;0.52;;;6.00;99.90;;;;;;5042307;28;20387;-82
2022/02/21 17:59:14;;;;;;;0.75;0.50;;;6.00;99.90;;;;;;5042016;28;20031;-82
2022/02/21 18:01:40;;;;;;;0.68;0.50;;;6.10;99.90;;;;;;5023507;28;20038;-83
2022/02/21 18:04:06;;;;;;;1.08;0.63;;;6.10;99.90;;;;;;5024619;28;20033;-82
2022/02/21 18:06:31;;;;;;;0.73;0.70;;;6.10;99.90;;;;;;5041476;28;20117;-83
2022/02/21 18:08:57;;;;;;;0.35;0.35;;;6.20;99.90;;;;;;5040797;28;20036;-82
2022/02/21 18:11:23;;;;;;;0.57;0.57;;;6.20;99.90;;;;;;5043194;28;20033;-82
2022/02/21 18:13:52;;;;;;;0.50;0.50;;;6.20;99.90;;;;;;5041137;28;20041;-82